sensor_id;sensor_type;location;lat;lon;timestamp;P1;durP1;ratioP1;P2;durP2;ratioP2
173;SDS011;75;48.784;9.364;2022-10-16T00:00:02;5.90;;;3.30;;
173;SDS011;75;48.784;9.364;2022-10-16T00:02:29;5.00;;;3.00;;
173;SDS011;75;48.784;9.364;2022-10-16T00:04:57;12.23;;;3.20;;
173;SDS011;75;48.784;9.364;2022-10-16T00:07:24;5.87;;;2.93;;
173;SDS011;75;48.784;9.364;2022-10-16T00:09:51;4.00;;;2.97;;
173;SDS011;75;48.784;9.364;2022-10-16T00:12:19;5.33;;;3.23;;
173;SDS011;75;48.784;9.364;2022-10-16T00:14:46;4.73;;;3.20;;
173;SDS011;75;48.784;9.364;2022-10-16T00:17:13;5.83;;;3.60;;
173;SDS011;75;48.784;9.364;2022-10-16T00:19:41;13.40;;;3.40;;
173;SDS011;75;48.784;9.364;2022-10-16T00:22:08;7.40;;;3.30;;
173;SDS011;75;48.784;9.364;2022-10-16T00:24:36;9.50;;;3.30;;
173;SDS011;75;48.784;9.364;2022-10-16T00:27:03;4.73;;;2.73;;
173;SDS011;75;48.784;9.364;2022-10-16T00:29:30;12.50;;;3.17;;
173;SDS011;75;48.784;9.364;2022-10-16T00:31:58;5.83;;;3.23;;
173;SDS011;75;48.784;9.364;2022-10-16T00:34:25;4.43;;;3.30;;
173;SDS011;75;48.784;9.364;2022-10-16T00:36:52;6.70;;;3.07;;
173;SDS011;75;48.784;9.364;2022-10-16T00:39:20;4.20;;;3.00;;
173;SDS011;75;48.784;9.364;2022-10-16T00:41:48;4.17;;;3.00;;
173;SDS011;75;48.784;9.364;2022-10-16T00:47:02;5.13;;;3.00;;
173;SDS011;75;48.784;9.364;2022-10-16T00:49:29;4.97;;;3.07;;
173;SDS011;75;48.784;9.364;2022-10-16T00:51:56;4.70;;;3.30;;
173;SDS011;75;48.784;9.364;2022-10-16T00:54:24;4.63;;;3.20;;
173;SDS011;75;48.784;9.364;2022-10-16T00:56:53;4.77;;;3.30;;
173;SDS011;75;48.784;9.364;2022-10-16T00:59:22;4.70;;;3.47;;
173;SDS011;75;48.784;9.364;2022-10-16T01:01:51;5.60;;;3.53;;
173;SDS011;75;48.784;9.364;2022-10-16T01:04:19;6.03;;;3.30;;
173;SDS011;75;48.784;9.364;2022-10-16T01:11:57;6.60;;;3.43;;
173;SDS011;75;48.784;9.364;2022-10-16T01:14:31;7.60;;;3.40;;
173;SDS011;75;48.784;9.364;2022-10-16T01:17:04;6.63;;;3.37;;
173;SDS011;75;48.784;9.364;2022-10-16T01:22:01;5.60;;;3.20;;
173;SDS011;75;48.784;9.364;2022-10-16T01:35:09;6.60;;;3.40;;
173;SDS011;75;48.784;9.364;2022-10-16T01:37:40;7.20;;;3.33;;
173;SDS011;75;48.784;9.364;2022-10-16T01:40:10;5.73;;;3.13;;
173;SDS011;75;48.784;9.364;2022-10-16T01:42:48;5.40;;;3.20;;
173;SDS011;75;48.784;9.364;2022-10-16T01:45:16;9.93;;;3.27;;
173;SDS011;75;48.784;9.364;2022-10-16T01:47:46;8.07;;;3.10;;
173;SDS011;75;48.784;9.364;2022-10-16T01:50:15;4.20;;;2.70;;
173;SDS011;75;48.784;9.364;2022-10-16T01:52:43;4.33;;;2.70;;
173;SDS011;75;48.784;9.364;2022-10-16T01:55:17;7.20;;;3.20;;
173;SDS011;75;48.784;9.364;2022-10-16T01:57:46;8.30;;;2.87;;
173;SDS011;75;48.784;9.364;2022-10-16T02:00:17;6.93;;;2.63;;
173;SDS011;75;48.784;9.364;2022-10-16T02:02:47;4.80;;;2.80;;
173;SDS011;75;48.784;9.364;2022-10-16T02:07:47;6.87;;;2.90;;
173;SDS011;75;48.784;9.364;2022-10-16T02:10:14;3.63;;;2.40;;
173;SDS011;75;48.784;9.364;2022-10-16T02:12:44;4.23;;;2.60;;
173;SDS011;75;48.784;9.364;2022-10-16T02:15:12;6.23;;;2.67;;
173;SDS011;75;48.784;9.364;2022-10-16T02:17:40;4.53;;;2.50;;
173;SDS011;75;48.784;9.364;2022-10-16T02:20:08;8.00;;;2.80;;
173;SDS011;75;48.784;9.364;2022-10-16T02:22:36;10.80;;;2.73;;
173;SDS011;75;48.784;9.364;2022-10-16T02:27:41;4.83;;;2.77;;
173;SDS011;75;48.784;9.364;2022-10-16T02:30:14;5.17;;;2.47;;
173;SDS011;75;48.784;9.364;2022-10-16T02:32:43;5.33;;;2.50;;
173;SDS011;75;48.784;9.364;2022-10-16T02:35:11;9.07;;;2.87;;
173;SDS011;75;48.784;9.364;2022-10-16T02:37:40;4.23;;;2.50;;
173;SDS011;75;48.784;9.364;2022-10-16T02:40:08;4.60;;;2.50;;
173;SDS011;75;48.784;9.364;2022-10-16T02:42:37;3.87;;;2.40;;
173;SDS011;75;48.784;9.364;2022-10-16T02:45:05;3.97;;;2.53;;
173;SDS011;75;48.784;9.364;2022-10-16T02:47:33;4.30;;;2.43;;
173;SDS011;75;48.784;9.364;2022-10-16T02:50:00;5.50;;;2.77;;
173;SDS011;75;48.784;9.364;2022-10-16T02:52:28;4.17;;;2.57;;
173;SDS011;75;48.784;9.364;2022-10-16T02:54:55;5.40;;;2.20;;
173;SDS011;75;48.784;9.364;2022-10-16T02:57:22;5.43;;;2.40;;
173;SDS011;75;48.784;9.364;2022-10-16T02:59:50;6.43;;;2.20;;
173;SDS011;75;48.784;9.364;2022-10-16T03:02:17;6.00;;;2.40;;
173;SDS011;75;48.784;9.364;2022-10-16T03:04:45;5.13;;;2.60;;
173;SDS011;75;48.784;9.364;2022-10-16T03:07:12;3.70;;;2.40;;
173;SDS011;75;48.784;9.364;2022-10-16T03:09:39;5.33;;;2.70;;
173;SDS011;75;48.784;9.364;2022-10-16T03:12:07;3.50;;;2.30;;
173;SDS011;75;48.784;9.364;2022-10-16T03:14:34;5.23;;;2.40;;
173;SDS011;75;48.784;9.364;2022-10-16T03:17:01;7.20;;;2.63;;
173;SDS011;75;48.784;9.364;2022-10-16T03:19:29;4.77;;;2.40;;
173;SDS011;75;48.784;9.364;2022-10-16T03:21:56;4.23;;;2.20;;
173;SDS011;75;48.784;9.364;2022-10-16T03:24:23;7.33;;;2.50;;
173;SDS011;75;48.784;9.364;2022-10-16T03:26:51;4.80;;;2.20;;
173;SDS011;75;48.784;9.364;2022-10-16T03:29:18;5.47;;;2.40;;
173;SDS011;75;48.784;9.364;2022-10-16T03:31:45;3.07;;;2.43;;
173;SDS011;75;48.784;9.364;2022-10-16T03:34:15;5.40;;;2.80;;
173;SDS011;75;48.784;9.364;2022-10-16T03:36:42;4.00;;;2.33;;
173;SDS011;75;48.784;9.364;2022-10-16T03:39:09;5.77;;;2.50;;
173;SDS011;75;48.784;9.364;2022-10-16T03:41:37;4.07;;;2.50;;
173;SDS011;75;48.784;9.364;2022-10-16T03:44:04;3.70;;;2.60;;
173;SDS011;75;48.784;9.364;2022-10-16T03:46:32;8.03;;;2.97;;
173;SDS011;75;48.784;9.364;2022-10-16T03:48:59;5.63;;;2.70;;
173;SDS011;75;48.784;9.364;2022-10-16T03:51:26;4.77;;;2.90;;
173;SDS011;75;48.784;9.364;2022-10-16T03:53:54;6.13;;;3.63;;
173;SDS011;75;48.784;9.364;2022-10-16T03:56:21;8.80;;;3.33;;
173;SDS011;75;48.784;9.364;2022-10-16T03:58:48;7.60;;;3.70;;
173;SDS011;75;48.784;9.364;2022-10-16T04:01:16;4.87;;;3.30;;
173;SDS011;75;48.784;9.364;2022-10-16T04:03:43;6.73;;;3.63;;
173;SDS011;75;48.784;9.364;2022-10-16T04:06:10;6.20;;;3.47;;
173;SDS011;75;48.784;9.364;2022-10-16T04:08:38;7.80;;;3.73;;
173;SDS011;75;48.784;9.364;2022-10-16T04:11:05;5.90;;;3.50;;
173;SDS011;75;48.784;9.364;2022-10-16T04:13:32;8.03;;;3.80;;
173;SDS011;75;48.784;9.364;2022-10-16T04:16:00;7.97;;;4.80;;
173;SDS011;75;48.784;9.364;2022-10-16T04:18:27;9.03;;;3.90;;
173;SDS011;75;48.784;9.364;2022-10-16T04:20:55;6.50;;;3.70;;
173;SDS011;75;48.784;9.364;2022-10-16T04:23:22;11.37;;;3.40;;
173;SDS011;75;48.784;9.364;2022-10-16T04:25:50;8.37;;;3.70;;
173;SDS011;75;48.784;9.364;2022-10-16T04:28:17;9.87;;;3.90;;
173;SDS011;75;48.784;9.364;2022-10-16T04:30:45;5.97;;;3.50;;
173;SDS011;75;48.784;9.364;2022-10-16T04:33:12;7.57;;;3.70;;
173;SDS011;75;48.784;9.364;2022-10-16T04:35:39;6.53;;;4.10;;
173;SDS011;75;48.784;9.364;2022-10-16T04:38:07;6.93;;;3.90;;
173;SDS011;75;48.784;9.364;2022-10-16T04:40:34;7.27;;;3.80;;
173;SDS011;75;48.784;9.364;2022-10-16T04:43:03;6.10;;;4.20;;
173;SDS011;75;48.784;9.364;2022-10-16T04:45:31;7.63;;;3.83;;
173;SDS011;75;48.784;9.364;2022-10-16T04:47:58;17.93;;;3.80;;
173;SDS011;75;48.784;9.364;2022-10-16T04:50:26;8.03;;;3.60;;
173;SDS011;75;48.784;9.364;2022-10-16T04:52:53;8.60;;;4.00;;
173;SDS011;75;48.784;9.364;2022-10-16T04:55:21;7.73;;;3.87;;
173;SDS011;75;48.784;9.364;2022-10-16T04:57:48;6.80;;;3.47;;
173;SDS011;75;48.784;9.364;2022-10-16T05:00:16;6.20;;;3.70;;
173;SDS011;75;48.784;9.364;2022-10-16T05:02:43;8.93;;;4.20;;
173;SDS011;75;48.784;9.364;2022-10-16T05:05:10;10.20;;;4.07;;
173;SDS011;75;48.784;9.364;2022-10-16T05:07:38;7.93;;;4.10;;
173;SDS011;75;48.784;9.364;2022-10-16T05:10:05;7.80;;;4.30;;
173;SDS011;75;48.784;9.364;2022-10-16T05:12:33;11.17;;;3.90;;
173;SDS011;75;48.784;9.364;2022-10-16T05:15:00;12.23;;;4.93;;
173;SDS011;75;48.784;9.364;2022-10-16T05:17:27;6.70;;;3.97;;
173;SDS011;75;48.784;9.364;2022-10-16T05:19:55;8.17;;;3.97;;
173;SDS011;75;48.784;9.364;2022-10-16T05:22:22;8.30;;;4.70;;
173;SDS011;75;48.784;9.364;2022-10-16T05:24:49;7.17;;;4.90;;
173;SDS011;75;48.784;9.364;2022-10-16T05:27:17;7.23;;;4.30;;
173;SDS011;75;48.784;9.364;2022-10-16T05:29:48;9.40;;;3.93;;
173;SDS011;75;48.784;9.364;2022-10-16T05:32:16;9.10;;;3.97;;
173;SDS011;75;48.784;9.364;2022-10-16T05:34:44;6.43;;;3.77;;
173;SDS011;75;48.784;9.364;2022-10-16T05:37:11;5.80;;;3.80;;
173;SDS011;75;48.784;9.364;2022-10-16T05:39:39;6.60;;;4.07;;
173;SDS011;75;48.784;9.364;2022-10-16T05:42:07;10.73;;;3.90;;
173;SDS011;75;48.784;9.364;2022-10-16T05:44:34;7.40;;;3.60;;
173;SDS011;75;48.784;9.364;2022-10-16T05:47:01;6.93;;;3.70;;
173;SDS011;75;48.784;9.364;2022-10-16T05:49:29;6.67;;;4.17;;
173;SDS011;75;48.784;9.364;2022-10-16T05:51:56;5.60;;;4.03;;
173;SDS011;75;48.784;9.364;2022-10-16T05:54:24;8.77;;;4.40;;
173;SDS011;75;48.784;9.364;2022-10-16T05:56:51;10.83;;;3.97;;
173;SDS011;75;48.784;9.364;2022-10-16T05:59:18;7.47;;;3.97;;
173;SDS011;75;48.784;9.364;2022-10-16T06:01:46;7.03;;;4.00;;
173;SDS011;75;48.784;9.364;2022-10-16T06:04:13;7.73;;;3.97;;
173;SDS011;75;48.784;9.364;2022-10-16T06:06:40;6.13;;;4.00;;
173;SDS011;75;48.784;9.364;2022-10-16T06:09:08;15.87;;;4.23;;
173;SDS011;75;48.784;9.364;2022-10-16T06:11:36;7.30;;;3.70;;
173;SDS011;75;48.784;9.364;2022-10-16T06:14:03;6.73;;;4.13;;
173;SDS011;75;48.784;9.364;2022-10-16T06:16:33;16.20;;;6.70;;
173;SDS011;75;48.784;9.364;2022-10-16T06:19:01;13.10;;;7.73;;
173;SDS011;75;48.784;9.364;2022-10-16T06:21:32;11.13;;;7.50;;
173;SDS011;75;48.784;9.364;2022-10-16T06:23:59;10.23;;;7.50;;
173;SDS011;75;48.784;9.364;2022-10-16T06:26:27;11.77;;;5.67;;
173;SDS011;75;48.784;9.364;2022-10-16T06:28:55;10.50;;;5.60;;
173;SDS011;75;48.784;9.364;2022-10-16T06:31:23;7.30;;;4.20;;
173;SDS011;75;48.784;9.364;2022-10-16T06:33:53;6.40;;;4.40;;
173;SDS011;75;48.784;9.364;2022-10-16T06:36:21;10.70;;;4.10;;
173;SDS011;75;48.784;9.364;2022-10-16T06:38:49;8.60;;;3.97;;
173;SDS011;75;48.784;9.364;2022-10-16T06:41:17;11.53;;;4.00;;
173;SDS011;75;48.784;9.364;2022-10-16T06:43:45;5.40;;;3.67;;
173;SDS011;75;48.784;9.364;2022-10-16T06:46:13;6.33;;;4.00;;
173;SDS011;75;48.784;9.364;2022-10-16T06:48:41;14.03;;;4.70;;
173;SDS011;75;48.784;9.364;2022-10-16T06:51:09;12.30;;;4.87;;
173;SDS011;75;48.784;9.364;2022-10-16T06:53:40;11.43;;;4.60;;
173;SDS011;75;48.784;9.364;2022-10-16T06:58:35;6.33;;;4.00;;
173;SDS011;75;48.784;9.364;2022-10-16T07:01:02;11.00;;;4.67;;
173;SDS011;75;48.784;9.364;2022-10-16T07:03:30;11.83;;;4.30;;
173;SDS011;75;48.784;9.364;2022-10-16T07:06:00;11.70;;;4.50;;
173;SDS011;75;48.784;9.364;2022-10-16T07:08:30;6.77;;;4.23;;
173;SDS011;75;48.784;9.364;2022-10-16T07:10:58;11.70;;;4.77;;
173;SDS011;75;48.784;9.364;2022-10-16T07:13:26;7.73;;;4.50;;
173;SDS011;75;48.784;9.364;2022-10-16T07:15:53;12.33;;;4.83;;
173;SDS011;75;48.784;9.364;2022-10-16T07:18:21;11.03;;;4.40;;
173;SDS011;75;48.784;9.364;2022-10-16T07:20:52;7.80;;;5.13;;
173;SDS011;75;48.784;9.364;2022-10-16T07:23:19;10.27;;;5.50;;
173;SDS011;75;48.784;9.364;2022-10-16T07:25:52;9.80;;;5.10;;
173;SDS011;75;48.784;9.364;2022-10-16T07:28:20;9.23;;;5.83;;
173;SDS011;75;48.784;9.364;2022-10-16T07:30:47;11.77;;;5.53;;
173;SDS011;75;48.784;9.364;2022-10-16T07:33:15;8.73;;;5.30;;
173;SDS011;75;48.784;9.364;2022-10-16T07:35:52;9.10;;;4.97;;
173;SDS011;75;48.784;9.364;2022-10-16T07:38:20;8.33;;;4.93;;
173;SDS011;75;48.784;9.364;2022-10-16T07:40:47;8.87;;;5.20;;
173;SDS011;75;48.784;9.364;2022-10-16T07:43:15;7.53;;;4.93;;
173;SDS011;75;48.784;9.364;2022-10-16T07:45:48;9.30;;;4.87;;
173;SDS011;75;48.784;9.364;2022-10-16T07:48:16;7.40;;;4.90;;
173;SDS011;75;48.784;9.364;2022-10-16T07:50:44;7.67;;;4.80;;
173;SDS011;75;48.784;9.364;2022-10-16T07:53:11;9.13;;;5.10;;
173;SDS011;75;48.784;9.364;2022-10-16T07:55:39;10.03;;;5.47;;
173;SDS011;75;48.784;9.364;2022-10-16T07:58:06;11.03;;;5.40;;
173;SDS011;75;48.784;9.364;2022-10-16T08:00:35;9.60;;;5.40;;
173;SDS011;75;48.784;9.364;2022-10-16T08:03:02;7.60;;;5.30;;
173;SDS011;75;48.784;9.364;2022-10-16T08:05:31;7.20;;;5.20;;
173;SDS011;75;48.784;9.364;2022-10-16T08:07:58;8.07;;;4.70;;
173;SDS011;75;48.784;9.364;2022-10-16T08:10:27;13.50;;;4.40;;
173;SDS011;75;48.784;9.364;2022-10-16T08:12:54;10.10;;;4.10;;
173;SDS011;75;48.784;9.364;2022-10-16T08:15:22;10.53;;;3.90;;
173;SDS011;75;48.784;9.364;2022-10-16T08:17:56;9.30;;;3.60;;
173;SDS011;75;48.784;9.364;2022-10-16T08:20:24;8.73;;;3.40;;
173;SDS011;75;48.784;9.364;2022-10-16T08:22:51;4.93;;;3.30;;
173;SDS011;75;48.784;9.364;2022-10-16T08:25:19;4.50;;;2.80;;
173;SDS011;75;48.784;9.364;2022-10-16T08:27:46;4.57;;;2.63;;
173;SDS011;75;48.784;9.364;2022-10-16T08:30:14;5.27;;;3.00;;
173;SDS011;75;48.784;9.364;2022-10-16T08:32:42;5.97;;;3.00;;
173;SDS011;75;48.784;9.364;2022-10-16T08:35:10;6.13;;;3.23;;
173;SDS011;75;48.784;9.364;2022-10-16T08:37:38;3.33;;;2.70;;
173;SDS011;75;48.784;9.364;2022-10-16T08:40:06;5.40;;;2.80;;
173;SDS011;75;48.784;9.364;2022-10-16T08:48:10;5.10;;;2.90;;
173;SDS011;75;48.784;9.364;2022-10-16T08:50:42;4.67;;;2.90;;
173;SDS011;75;48.784;9.364;2022-10-16T08:53:14;9.27;;;2.80;;
173;SDS011;75;48.784;9.364;2022-10-16T08:55:44;4.03;;;2.63;;
173;SDS011;75;48.784;9.364;2022-10-16T08:58:16;5.20;;;2.90;;
173;SDS011;75;48.784;9.364;2022-10-16T09:00:48;4.47;;;2.40;;
173;SDS011;75;48.784;9.364;2022-10-16T09:03:20;6.20;;;2.90;;
173;SDS011;75;48.784;9.364;2022-10-16T09:05:54;7.10;;;2.53;;
173;SDS011;75;48.784;9.364;2022-10-16T09:11:09;5.67;;;2.80;;
173;SDS011;75;48.784;9.364;2022-10-16T09:13:43;4.20;;;2.80;;
173;SDS011;75;48.784;9.364;2022-10-16T09:18:46;3.47;;;2.70;;
173;SDS011;75;48.784;9.364;2022-10-16T09:21:19;7.70;;;3.10;;
173;SDS011;75;48.784;9.364;2022-10-16T09:23:48;4.13;;;2.70;;
173;SDS011;75;48.784;9.364;2022-10-16T09:26:16;8.00;;;2.50;;
173;SDS011;75;48.784;9.364;2022-10-16T09:28:45;4.40;;;2.53;;
173;SDS011;75;48.784;9.364;2022-10-16T09:31:16;4.90;;;2.80;;
173;SDS011;75;48.784;9.364;2022-10-16T09:33:45;5.83;;;2.73;;
173;SDS011;75;48.784;9.364;2022-10-16T09:36:14;4.10;;;2.90;;
173;SDS011;75;48.784;9.364;2022-10-16T09:38:42;6.40;;;2.70;;
173;SDS011;75;48.784;9.364;2022-10-16T09:41:16;4.87;;;2.70;;
173;SDS011;75;48.784;9.364;2022-10-16T09:46:25;3.83;;;2.80;;
173;SDS011;75;48.784;9.364;2022-10-16T09:48:55;4.80;;;2.50;;
173;SDS011;75;48.784;9.364;2022-10-16T09:53:54;5.50;;;2.80;;
173;SDS011;75;48.784;9.364;2022-10-16T09:56:26;12.30;;;2.80;;
173;SDS011;75;48.784;9.364;2022-10-16T09:58:55;4.53;;;2.80;;
173;SDS011;75;48.784;9.364;2022-10-16T10:01:28;4.00;;;2.60;;
173;SDS011;75;48.784;9.364;2022-10-16T10:03:57;4.20;;;2.80;;
173;SDS011;75;48.784;9.364;2022-10-16T10:06:30;4.50;;;2.60;;
173;SDS011;75;48.784;9.364;2022-10-16T10:08:59;6.33;;;2.90;;
173;SDS011;75;48.784;9.364;2022-10-16T10:14:27;6.37;;;3.00;;
173;SDS011;75;48.784;9.364;2022-10-16T10:22:13;5.20;;;2.60;;
173;SDS011;75;48.784;9.364;2022-10-16T10:24:44;4.20;;;2.73;;
173;SDS011;75;48.784;9.364;2022-10-16T10:27:14;6.40;;;3.00;;
173;SDS011;75;48.784;9.364;2022-10-16T10:29:46;5.63;;;3.10;;
173;SDS011;75;48.784;9.364;2022-10-16T10:32:23;5.77;;;2.77;;
173;SDS011;75;48.784;9.364;2022-10-16T10:40:14;4.10;;;2.80;;
173;SDS011;75;48.784;9.364;2022-10-16T10:47:47;5.00;;;2.80;;
173;SDS011;75;48.784;9.364;2022-10-16T10:52:51;5.50;;;2.70;;
173;SDS011;75;48.784;9.364;2022-10-16T10:57:54;6.53;;;2.83;;
173;SDS011;75;48.784;9.364;2022-10-16T11:02:54;4.20;;;2.90;;
173;SDS011;75;48.784;9.364;2022-10-16T11:05:40;7.70;;;3.00;;
173;SDS011;75;48.784;9.364;2022-10-16T11:08:13;4.43;;;2.90;;
173;SDS011;75;48.784;9.364;2022-10-16T11:10:50;4.20;;;2.67;;
173;SDS011;75;48.784;9.364;2022-10-16T11:13:23;5.83;;;2.60;;
173;SDS011;75;48.784;9.364;2022-10-16T11:15:52;4.43;;;2.60;;
173;SDS011;75;48.784;9.364;2022-10-16T11:18:22;5.80;;;2.80;;
173;SDS011;75;48.784;9.364;2022-10-16T11:20:53;3.90;;;2.70;;
173;SDS011;75;48.784;9.364;2022-10-16T11:23:25;6.03;;;2.57;;
173;SDS011;75;48.784;9.364;2022-10-16T11:25:56;9.53;;;2.70;;
173;SDS011;75;48.784;9.364;2022-10-16T11:28:26;3.00;;;2.43;;
173;SDS011;75;48.784;9.364;2022-10-16T11:33:44;5.60;;;2.93;;
173;SDS011;75;48.784;9.364;2022-10-16T11:36:15;5.37;;;2.90;;
173;SDS011;75;48.784;9.364;2022-10-16T11:41:17;4.67;;;2.70;;
173;SDS011;75;48.784;9.364;2022-10-16T11:43:57;7.73;;;2.60;;
173;SDS011;75;48.784;9.364;2022-10-16T11:46:27;4.43;;;2.63;;
173;SDS011;75;48.784;9.364;2022-10-16T11:49:00;6.07;;;2.80;;
173;SDS011;75;48.784;9.364;2022-10-16T11:51:32;5.70;;;2.60;;
173;SDS011;75;48.784;9.364;2022-10-16T11:54:07;3.70;;;2.70;;
173;SDS011;75;48.784;9.364;2022-10-16T11:56:36;5.80;;;2.73;;
173;SDS011;75;48.784;9.364;2022-10-16T11:59:13;4.77;;;2.63;;
173;SDS011;75;48.784;9.364;2022-10-16T12:01:47;6.10;;;2.60;;
173;SDS011;75;48.784;9.364;2022-10-16T12:06:44;4.10;;;2.70;;
173;SDS011;75;48.784;9.364;2022-10-16T12:09:15;4.77;;;2.77;;
173;SDS011;75;48.784;9.364;2022-10-16T12:11:45;3.40;;;2.67;;
173;SDS011;75;48.784;9.364;2022-10-16T12:16:50;4.00;;;2.70;;
173;SDS011;75;48.784;9.364;2022-10-16T12:19:19;6.27;;;2.67;;
173;SDS011;75;48.784;9.364;2022-10-16T12:21:55;5.80;;;2.80;;
173;SDS011;75;48.784;9.364;2022-10-16T12:26:55;4.70;;;2.77;;
173;SDS011;75;48.784;9.364;2022-10-16T12:31:50;6.20;;;2.70;;
173;SDS011;75;48.784;9.364;2022-10-16T12:36:51;5.80;;;2.63;;
173;SDS011;75;48.784;9.364;2022-10-16T12:39:22;3.60;;;2.60;;
173;SDS011;75;48.784;9.364;2022-10-16T12:44:36;4.07;;;2.70;;
173;SDS011;75;48.784;9.364;2022-10-16T12:47:03;8.03;;;2.87;;
173;SDS011;75;48.784;9.364;2022-10-16T12:49:36;3.80;;;2.80;;
173;SDS011;75;48.784;9.364;2022-10-16T12:52:05;4.33;;;2.87;;
173;SDS011;75;48.784;9.364;2022-10-16T12:54:50;4.73;;;2.33;;
173;SDS011;75;48.784;9.364;2022-10-16T12:59:53;6.50;;;2.67;;
173;SDS011;75;48.784;9.364;2022-10-16T13:13:00;3.97;;;2.57;;
173;SDS011;75;48.784;9.364;2022-10-16T13:23:17;8.40;;;3.23;;
173;SDS011;75;48.784;9.364;2022-10-16T13:26:00;6.20;;;2.80;;
173;SDS011;75;48.784;9.364;2022-10-16T13:28:34;4.90;;;2.77;;
173;SDS011;75;48.784;9.364;2022-10-16T13:31:02;3.20;;;2.47;;
173;SDS011;75;48.784;9.364;2022-10-16T13:36:01;5.43;;;3.20;;
173;SDS011;75;48.784;9.364;2022-10-16T13:38:32;10.83;;;3.00;;
173;SDS011;75;48.784;9.364;2022-10-16T13:41:13;6.07;;;3.03;;
173;SDS011;75;48.784;9.364;2022-10-16T13:43:45;8.67;;;2.70;;
173;SDS011;75;48.784;9.364;2022-10-16T13:46:17;8.33;;;2.83;;
173;SDS011;75;48.784;9.364;2022-10-16T13:48:45;5.97;;;3.20;;
173;SDS011;75;48.784;9.364;2022-10-16T13:51:22;12.57;;;3.00;;
173;SDS011;75;48.784;9.364;2022-10-16T13:53:50;4.83;;;2.87;;
173;SDS011;75;48.784;9.364;2022-10-16T13:56:18;5.93;;;3.10;;
173;SDS011;75;48.784;9.364;2022-10-16T13:58:46;5.13;;;2.87;;
173;SDS011;75;48.784;9.364;2022-10-16T14:01:15;6.13;;;3.30;;
173;SDS011;75;48.784;9.364;2022-10-16T14:03:43;5.70;;;2.80;;
173;SDS011;75;48.784;9.364;2022-10-16T14:06:12;5.43;;;3.10;;
173;SDS011;75;48.784;9.364;2022-10-16T14:08:45;9.03;;;3.30;;
173;SDS011;75;48.784;9.364;2022-10-16T14:11:20;7.00;;;3.37;;
173;SDS011;75;48.784;9.364;2022-10-16T14:13:48;9.13;;;3.27;;
173;SDS011;75;48.784;9.364;2022-10-16T14:16:20;7.23;;;3.10;;
173;SDS011;75;48.784;9.364;2022-10-16T14:18:52;4.43;;;2.90;;
173;SDS011;75;48.784;9.364;2022-10-16T14:21:21;5.00;;;3.00;;
173;SDS011;75;48.784;9.364;2022-10-16T14:23:49;5.27;;;2.80;;
173;SDS011;75;48.784;9.364;2022-10-16T14:26:18;6.57;;;2.97;;
173;SDS011;75;48.784;9.364;2022-10-16T14:28:46;4.07;;;2.90;;
173;SDS011;75;48.784;9.364;2022-10-16T14:34:24;6.17;;;3.63;;
173;SDS011;75;48.784;9.364;2022-10-16T14:36:51;6.80;;;3.30;;
173;SDS011;75;48.784;9.364;2022-10-16T14:39:19;6.50;;;3.40;;
173;SDS011;75;48.784;9.364;2022-10-16T14:41:48;7.13;;;3.20;;
173;SDS011;75;48.784;9.364;2022-10-16T14:44:19;9.63;;;3.37;;
173;SDS011;75;48.784;9.364;2022-10-16T14:46:48;6.17;;;3.43;;
173;SDS011;75;48.784;9.364;2022-10-16T14:49:17;5.70;;;3.10;;
173;SDS011;75;48.784;9.364;2022-10-16T14:51:46;7.90;;;3.33;;
173;SDS011;75;48.784;9.364;2022-10-16T14:54:14;6.27;;;3.10;;
173;SDS011;75;48.784;9.364;2022-10-16T14:56:46;23.23;;;3.50;;
173;SDS011;75;48.784;9.364;2022-10-16T14:59:18;5.47;;;3.23;;
173;SDS011;75;48.784;9.364;2022-10-16T15:01:46;12.77;;;3.53;;
173;SDS011;75;48.784;9.364;2022-10-16T15:04:14;9.27;;;3.30;;
173;SDS011;75;48.784;9.364;2022-10-16T15:06:42;14.03;;;3.20;;
173;SDS011;75;48.784;9.364;2022-10-16T15:09:09;10.00;;;3.20;;
173;SDS011;75;48.784;9.364;2022-10-16T15:11:37;5.67;;;3.00;;
173;SDS011;75;48.784;9.364;2022-10-16T15:14:04;13.30;;;3.20;;
173;SDS011;75;48.784;9.364;2022-10-16T15:16:32;5.43;;;3.00;;
173;SDS011;75;48.784;9.364;2022-10-16T15:19:00;5.20;;;3.07;;
173;SDS011;75;48.784;9.364;2022-10-16T15:21:28;4.40;;;2.80;;
173;SDS011;75;48.784;9.364;2022-10-16T15:23:56;7.20;;;3.20;;
173;SDS011;75;48.784;9.364;2022-10-16T15:26:26;6.30;;;3.37;;
173;SDS011;75;48.784;9.364;2022-10-16T15:28:54;7.17;;;3.20;;
173;SDS011;75;48.784;9.364;2022-10-16T15:31:22;10.20;;;3.10;;
173;SDS011;75;48.784;9.364;2022-10-16T15:33:54;6.87;;;3.40;;
173;SDS011;75;48.784;9.364;2022-10-16T15:36:25;6.80;;;3.20;;
173;SDS011;75;48.784;9.364;2022-10-16T15:38:53;6.73;;;3.30;;
173;SDS011;75;48.784;9.364;2022-10-16T15:41:20;8.00;;;3.33;;
173;SDS011;75;48.784;9.364;2022-10-16T15:43:48;4.93;;;3.20;;
173;SDS011;75;48.784;9.364;2022-10-16T15:46:19;8.57;;;3.43;;
173;SDS011;75;48.784;9.364;2022-10-16T15:48:48;5.37;;;3.13;;
173;SDS011;75;48.784;9.364;2022-10-16T15:51:16;5.20;;;3.20;;
173;SDS011;75;48.784;9.364;2022-10-16T15:53:43;13.80;;;3.50;;
173;SDS011;75;48.784;9.364;2022-10-16T15:56:13;12.70;;;3.80;;
173;SDS011;75;48.784;9.364;2022-10-16T15:58:40;6.83;;;3.40;;
173;SDS011;75;48.784;9.364;2022-10-16T16:01:07;6.00;;;3.40;;
173;SDS011;75;48.784;9.364;2022-10-16T16:03:37;7.70;;;3.50;;
173;SDS011;75;48.784;9.364;2022-10-16T16:06:07;9.27;;;3.60;;
173;SDS011;75;48.784;9.364;2022-10-16T16:08:35;9.33;;;3.90;;
173;SDS011;75;48.784;9.364;2022-10-16T16:11:04;14.80;;;3.80;;
173;SDS011;75;48.784;9.364;2022-10-16T16:13:32;7.60;;;3.60;;
173;SDS011;75;48.784;9.364;2022-10-16T16:16:00;5.10;;;3.60;;
173;SDS011;75;48.784;9.364;2022-10-16T16:18:27;7.93;;;3.93;;
173;SDS011;75;48.784;9.364;2022-10-16T16:20:55;9.00;;;3.60;;
173;SDS011;75;48.784;9.364;2022-10-16T16:23:23;5.43;;;3.70;;
173;SDS011;75;48.784;9.364;2022-10-16T16:26:03;8.40;;;3.53;;
173;SDS011;75;48.784;9.364;2022-10-16T16:28:31;6.83;;;4.10;;
173;SDS011;75;48.784;9.364;2022-10-16T16:30:58;7.63;;;4.00;;
173;SDS011;75;48.784;9.364;2022-10-16T16:33:26;7.50;;;3.90;;
173;SDS011;75;48.784;9.364;2022-10-16T16:35:56;8.50;;;3.83;;
173;SDS011;75;48.784;9.364;2022-10-16T16:38:24;11.13;;;4.20;;
173;SDS011;75;48.784;9.364;2022-10-16T16:40:52;14.13;;;4.10;;
173;SDS011;75;48.784;9.364;2022-10-16T16:43:24;12.60;;;3.67;;
173;SDS011;75;48.784;9.364;2022-10-16T16:45:51;7.07;;;4.03;;
173;SDS011;75;48.784;9.364;2022-10-16T16:48:19;6.90;;;4.20;;
173;SDS011;75;48.784;9.364;2022-10-16T16:50:46;8.63;;;4.33;;
173;SDS011;75;48.784;9.364;2022-10-16T16:53:14;8.40;;;4.20;;
173;SDS011;75;48.784;9.364;2022-10-16T16:55:42;8.40;;;4.40;;
173;SDS011;75;48.784;9.364;2022-10-16T16:58:09;14.47;;;3.93;;
173;SDS011;75;48.784;9.364;2022-10-16T17:00:36;9.37;;;4.20;;
173;SDS011;75;48.784;9.364;2022-10-16T17:03:04;13.20;;;4.80;;
173;SDS011;75;48.784;9.364;2022-10-16T17:05:31;10.90;;;4.50;;
173;SDS011;75;48.784;9.364;2022-10-16T17:07:59;8.93;;;5.50;;
173;SDS011;75;48.784;9.364;2022-10-16T17:10:26;16.90;;;6.70;;
173;SDS011;75;48.784;9.364;2022-10-16T17:12:53;16.77;;;7.00;;
173;SDS011;75;48.784;9.364;2022-10-16T17:15:21;13.20;;;7.00;;
173;SDS011;75;48.784;9.364;2022-10-16T17:17:48;14.43;;;7.10;;
173;SDS011;75;48.784;9.364;2022-10-16T17:20:16;11.47;;;6.57;;
173;SDS011;75;48.784;9.364;2022-10-16T17:22:43;13.00;;;6.60;;
173;SDS011;75;48.784;9.364;2022-10-16T17:25:10;17.60;;;5.17;;
173;SDS011;75;48.784;9.364;2022-10-16T17:27:38;8.63;;;4.40;;
173;SDS011;75;48.784;9.364;2022-10-16T17:30:05;8.90;;;5.00;;
173;SDS011;75;48.784;9.364;2022-10-16T17:32:33;13.50;;;5.60;;
173;SDS011;75;48.784;9.364;2022-10-16T17:35:00;18.70;;;9.30;;
173;SDS011;75;48.784;9.364;2022-10-16T17:37:28;17.63;;;7.70;;
173;SDS011;75;48.784;9.364;2022-10-16T17:39:55;24.20;;;7.37;;
173;SDS011;75;48.784;9.364;2022-10-16T17:42:22;13.60;;;7.20;;
173;SDS011;75;48.784;9.364;2022-10-16T17:44:50;17.70;;;7.43;;
173;SDS011;75;48.784;9.364;2022-10-16T17:47:17;22.00;;;9.43;;
173;SDS011;75;48.784;9.364;2022-10-16T17:49:45;19.37;;;8.20;;
173;SDS011;75;48.784;9.364;2022-10-16T17:52:12;17.50;;;8.53;;
173;SDS011;75;48.784;9.364;2022-10-16T17:54:39;18.73;;;8.70;;
173;SDS011;75;48.784;9.364;2022-10-16T17:57:07;12.53;;;7.20;;
173;SDS011;75;48.784;9.364;2022-10-16T17:59:34;12.17;;;8.10;;
173;SDS011;75;48.784;9.364;2022-10-16T18:02:02;13.40;;;8.10;;
173;SDS011;75;48.784;9.364;2022-10-16T18:04:29;13.50;;;7.20;;